sensor_id;sensor_type;location;lat;lon;timestamp;P1;durP1;ratioP1;P2;durP2;ratioP2
20445;SDS011;10382;49.140;9.234;2022-07-23T00:01:37;23.00;;;9.57;;
20445;SDS011;10382;49.140;9.234;2022-07-23T00:04:06;19.60;;;10.07;;
20445;SDS011;10382;49.140;9.234;2022-07-23T00:06:33;24.63;;;10.60;;
20445;SDS011;10382;49.140;9.234;2022-07-23T00:09:00;16.70;;;9.70;;
20445;SDS011;10382;49.140;9.234;2022-07-23T00:11:27;20.23;;;10.67;;
20445;SDS011;10382;49.140;9.234;2022-07-23T00:13:53;21.50;;;9.07;;
20445;SDS011;10382;49.140;9.234;2022-07-23T00:16:23;22.30;;;9.47;;
20445;SDS011;10382;49.140;9.234;2022-07-23T00:18:50;21.23;;;10.00;;
20445;SDS011;10382;49.140;9.234;2022-07-23T00:21:17;27.03;;;11.47;;
20445;SDS011;10382;49.140;9.234;2022-07-23T00:23:44;21.90;;;9.77;;
20445;SDS011;10382;49.140;9.234;2022-07-23T00:26:11;19.50;;;8.80;;
20445;SDS011;10382;49.140;9.234;2022-07-23T00:28:38;21.50;;;9.57;;
20445;SDS011;10382;49.140;9.234;2022-07-23T00:31:05;22.00;;;9.03;;
20445;SDS011;10382;49.140;9.234;2022-07-23T00:33:33;17.40;;;8.60;;
20445;SDS011;10382;49.140;9.234;2022-07-23T00:36:00;30.90;;;10.10;;
20445;SDS011;10382;49.140;9.234;2022-07-23T00:38:27;19.40;;;9.73;;
20445;SDS011;10382;49.140;9.234;2022-07-23T00:40:54;23.23;;;9.20;;
20445;SDS011;10382;49.140;9.234;2022-07-23T00:43:21;24.37;;;9.17;;
20445;SDS011;10382;49.140;9.234;2022-07-23T00:45:48;28.10;;;10.10;;
20445;SDS011;10382;49.140;9.234;2022-07-23T00:48:15;20.30;;;8.40;;
20445;SDS011;10382;49.140;9.234;2022-07-23T00:50:44;23.83;;;10.47;;
20445;SDS011;10382;49.140;9.234;2022-07-23T00:53:10;16.83;;;9.57;;
20445;SDS011;10382;49.140;9.234;2022-07-23T00:55:38;16.20;;;9.23;;
20445;SDS011;10382;49.140;9.234;2022-07-23T00:58:05;23.60;;;9.17;;
20445;SDS011;10382;49.140;9.234;2022-07-23T01:00:33;18.03;;;9.03;;
20445;SDS011;10382;49.140;9.234;2022-07-23T01:03:00;15.50;;;9.13;;
20445;SDS011;10382;49.140;9.234;2022-07-23T01:05:27;17.53;;;9.57;;
20445;SDS011;10382;49.140;9.234;2022-07-23T01:07:55;16.53;;;9.37;;
20445;SDS011;10382;49.140;9.234;2022-07-23T01:10:22;19.17;;;9.63;;
20445;SDS011;10382;49.140;9.234;2022-07-23T01:12:59;15.10;;;8.60;;
20445;SDS011;10382;49.140;9.234;2022-07-23T01:15:27;20.90;;;8.93;;
20445;SDS011;10382;49.140;9.234;2022-07-23T01:17:54;15.47;;;9.70;;
20445;SDS011;10382;49.140;9.234;2022-07-23T01:20:21;16.00;;;8.50;;
20445;SDS011;10382;49.140;9.234;2022-07-23T01:22:50;15.00;;;9.40;;
20445;SDS011;10382;49.140;9.234;2022-07-23T01:25:18;18.47;;;9.97;;
20445;SDS011;10382;49.140;9.234;2022-07-23T01:27:45;17.27;;;8.33;;
20445;SDS011;10382;49.140;9.234;2022-07-23T01:30:12;15.07;;;8.27;;
20445;SDS011;10382;49.140;9.234;2022-07-23T01:32:40;15.47;;;7.97;;
20445;SDS011;10382;49.140;9.234;2022-07-23T01:35:07;16.20;;;9.07;;
20445;SDS011;10382;49.140;9.234;2022-07-23T01:37:35;17.23;;;9.00;;
20445;SDS011;10382;49.140;9.234;2022-07-23T01:40:04;16.33;;;9.40;;
20445;SDS011;10382;49.140;9.234;2022-07-23T01:42:32;17.20;;;9.37;;
20445;SDS011;10382;49.140;9.234;2022-07-23T01:44:59;20.53;;;9.50;;
20445;SDS011;10382;49.140;9.234;2022-07-23T01:47:26;14.40;;;8.60;;
20445;SDS011;10382;49.140;9.234;2022-07-23T01:49:52;17.63;;;9.27;;
20445;SDS011;10382;49.140;9.234;2022-07-23T01:52:19;20.00;;;9.00;;
20445;SDS011;10382;49.140;9.234;2022-07-23T01:54:46;14.10;;;8.50;;
20445;SDS011;10382;49.140;9.234;2022-07-23T01:57:14;27.43;;;8.90;;
20445;SDS011;10382;49.140;9.234;2022-07-23T01:59:42;13.97;;;8.50;;
20445;SDS011;10382;49.140;9.234;2022-07-23T02:02:08;18.50;;;9.70;;
20445;SDS011;10382;49.140;9.234;2022-07-23T02:04:35;18.60;;;9.53;;
20445;SDS011;10382;49.140;9.234;2022-07-23T02:07:02;16.10;;;9.00;;
20445;SDS011;10382;49.140;9.234;2022-07-23T02:09:30;20.23;;;8.27;;
20445;SDS011;10382;49.140;9.234;2022-07-23T02:11:57;19.50;;;8.63;;
20445;SDS011;10382;49.140;9.234;2022-07-23T02:14:25;15.67;;;8.30;;
20445;SDS011;10382;49.140;9.234;2022-07-23T02:16:52;24.83;;;9.47;;
20445;SDS011;10382;49.140;9.234;2022-07-23T02:19:19;16.83;;;8.70;;
20445;SDS011;10382;49.140;9.234;2022-07-23T02:21:46;16.00;;;8.40;;
20445;SDS011;10382;49.140;9.234;2022-07-23T02:24:13;15.80;;;8.87;;
20445;SDS011;10382;49.140;9.234;2022-07-23T02:26:40;21.13;;;9.67;;
20445;SDS011;10382;49.140;9.234;2022-07-23T02:29:07;18.90;;;10.70;;
20445;SDS011;10382;49.140;9.234;2022-07-23T02:31:36;20.13;;;10.17;;
20445;SDS011;10382;49.140;9.234;2022-07-23T02:34:03;17.87;;;9.87;;
20445;SDS011;10382;49.140;9.234;2022-07-23T02:36:30;18.90;;;10.37;;
20445;SDS011;10382;49.140;9.234;2022-07-23T02:38:57;16.73;;;10.00;;
20445;SDS011;10382;49.140;9.234;2022-07-23T02:41:24;22.23;;;10.80;;
20445;SDS011;10382;49.140;9.234;2022-07-23T02:43:51;19.43;;;10.10;;
20445;SDS011;10382;49.140;9.234;2022-07-23T02:46:18;16.93;;;8.73;;
20445;SDS011;10382;49.140;9.234;2022-07-23T02:48:46;17.57;;;10.40;;
20445;SDS011;10382;49.140;9.234;2022-07-23T02:51:13;19.33;;;10.60;;
20445;SDS011;10382;49.140;9.234;2022-07-23T02:53:40;16.40;;;9.70;;
20445;SDS011;10382;49.140;9.234;2022-07-23T02:56:07;20.00;;;10.53;;
20445;SDS011;10382;49.140;9.234;2022-07-23T02:58:34;16.10;;;9.20;;
20445;SDS011;10382;49.140;9.234;2022-07-23T03:01:01;18.57;;;11.53;;
20445;SDS011;10382;49.140;9.234;2022-07-23T03:03:29;21.40;;;10.20;;
20445;SDS011;10382;49.140;9.234;2022-07-23T03:05:57;19.00;;;10.10;;
20445;SDS011;10382;49.140;9.234;2022-07-23T03:08:24;18.70;;;10.33;;
20445;SDS011;10382;49.140;9.234;2022-07-23T03:10:51;16.70;;;9.90;;
20445;SDS011;10382;49.140;9.234;2022-07-23T03:13:18;14.20;;;9.23;;
20445;SDS011;10382;49.140;9.234;2022-07-23T03:15:45;19.47;;;10.70;;
20445;SDS011;10382;49.140;9.234;2022-07-23T03:18:12;20.43;;;11.37;;
20445;SDS011;10382;49.140;9.234;2022-07-23T03:20:39;20.43;;;11.30;;
20445;SDS011;10382;49.140;9.234;2022-07-23T03:23:08;19.40;;;9.80;;
20445;SDS011;10382;49.140;9.234;2022-07-23T03:25:34;17.80;;;11.33;;
20445;SDS011;10382;49.140;9.234;2022-07-23T03:28:01;20.50;;;10.90;;
20445;SDS011;10382;49.140;9.234;2022-07-23T03:30:28;21.53;;;11.17;;
20445;SDS011;10382;49.140;9.234;2022-07-23T03:32:55;29.40;;;12.13;;
20445;SDS011;10382;49.140;9.234;2022-07-23T03:35:22;23.77;;;10.60;;
20445;SDS011;10382;49.140;9.234;2022-07-23T03:37:49;27.03;;;12.23;;
20445;SDS011;10382;49.140;9.234;2022-07-23T03:40:17;17.20;;;10.03;;
20445;SDS011;10382;49.140;9.234;2022-07-23T03:42:44;19.17;;;11.77;;
20445;SDS011;10382;49.140;9.234;2022-07-23T03:45:11;19.47;;;10.93;;
20445;SDS011;10382;49.140;9.234;2022-07-23T03:47:38;17.43;;;10.30;;
20445;SDS011;10382;49.140;9.234;2022-07-23T03:50:06;23.70;;;11.33;;
20445;SDS011;10382;49.140;9.234;2022-07-23T03:52:33;20.23;;;10.30;;
20445;SDS011;10382;49.140;9.234;2022-07-23T03:55:00;18.57;;;9.93;;
20445;SDS011;10382;49.140;9.234;2022-07-23T03:57:28;23.33;;;12.30;;
20445;SDS011;10382;49.140;9.234;2022-07-23T03:59:56;18.40;;;9.70;;
20445;SDS011;10382;49.140;9.234;2022-07-23T04:02:23;15.30;;;9.53;;
20445;SDS011;10382;49.140;9.234;2022-07-23T04:04:50;30.80;;;12.47;;
20445;SDS011;10382;49.140;9.234;2022-07-23T04:07:17;19.30;;;11.30;;
20445;SDS011;10382;49.140;9.234;2022-07-23T04:09:44;21.30;;;12.00;;
20445;SDS011;10382;49.140;9.234;2022-07-23T04:12:11;21.43;;;11.37;;
20445;SDS011;10382;49.140;9.234;2022-07-23T04:14:39;16.30;;;9.80;;
20445;SDS011;10382;49.140;9.234;2022-07-23T04:17:06;16.33;;;10.57;;
20445;SDS011;10382;49.140;9.234;2022-07-23T04:19:33;19.57;;;10.30;;
20445;SDS011;10382;49.140;9.234;2022-07-23T04:22:01;22.03;;;10.53;;
20445;SDS011;10382;49.140;9.234;2022-07-23T04:24:28;16.80;;;9.40;;
20445;SDS011;10382;49.140;9.234;2022-07-23T04:26:55;22.27;;;12.63;;
20445;SDS011;10382;49.140;9.234;2022-07-23T04:29:23;15.97;;;9.87;;
20445;SDS011;10382;49.140;9.234;2022-07-23T04:31:51;16.70;;;11.00;;
20445;SDS011;10382;49.140;9.234;2022-07-23T04:34:18;23.97;;;11.63;;
20445;SDS011;10382;49.140;9.234;2022-07-23T04:36:45;20.87;;;10.93;;
20445;SDS011;10382;49.140;9.234;2022-07-23T04:39:12;19.80;;;11.40;;
20445;SDS011;10382;49.140;9.234;2022-07-23T04:41:38;21.70;;;11.37;;
20445;SDS011;10382;49.140;9.234;2022-07-23T04:44:06;32.10;;;11.83;;
20445;SDS011;10382;49.140;9.234;2022-07-23T04:46:32;23.13;;;12.43;;
20445;SDS011;10382;49.140;9.234;2022-07-23T04:49:01;28.60;;;12.40;;
20445;SDS011;10382;49.140;9.234;2022-07-23T04:51:28;20.53;;;10.73;;
20445;SDS011;10382;49.140;9.234;2022-07-23T04:53:55;27.23;;;14.80;;
20445;SDS011;10382;49.140;9.234;2022-07-23T04:56:22;19.73;;;11.00;;
20445;SDS011;10382;49.140;9.234;2022-07-23T04:58:49;20.00;;;11.80;;
20445;SDS011;10382;49.140;9.234;2022-07-23T05:01:16;20.90;;;11.00;;
20445;SDS011;10382;49.140;9.234;2022-07-23T05:03:43;20.40;;;10.90;;
20445;SDS011;10382;49.140;9.234;2022-07-23T05:06:11;19.20;;;11.37;;
20445;SDS011;10382;49.140;9.234;2022-07-23T05:08:38;24.20;;;12.57;;
20445;SDS011;10382;49.140;9.234;2022-07-23T05:11:05;22.40;;;12.03;;
20445;SDS011;10382;49.140;9.234;2022-07-23T05:13:32;21.30;;;11.57;;
20445;SDS011;10382;49.140;9.234;2022-07-23T05:15:59;24.00;;;12.23;;
20445;SDS011;10382;49.140;9.234;2022-07-23T05:18:26;20.20;;;11.57;;
20445;SDS011;10382;49.140;9.234;2022-07-23T05:20:52;21.33;;;11.37;;
20445;SDS011;10382;49.140;9.234;2022-07-23T05:23:21;19.90;;;11.13;;
20445;SDS011;10382;49.140;9.234;2022-07-23T05:25:48;29.43;;;11.60;;
20445;SDS011;10382;49.140;9.234;2022-07-23T05:28:15;18.17;;;10.67;;
20445;SDS011;10382;49.140;9.234;2022-07-23T05:30:41;24.43;;;11.60;;
20445;SDS011;10382;49.140;9.234;2022-07-23T05:33:08;22.90;;;10.60;;
20445;SDS011;10382;49.140;9.234;2022-07-23T05:35:35;23.33;;;11.70;;
20445;SDS011;10382;49.140;9.234;2022-07-23T05:38:02;20.93;;;12.23;;
20445;SDS011;10382;49.140;9.234;2022-07-23T05:40:30;29.00;;;11.87;;
20445;SDS011;10382;49.140;9.234;2022-07-23T05:42:58;15.60;;;9.43;;
20445;SDS011;10382;49.140;9.234;2022-07-23T05:45:25;20.07;;;11.30;;
20445;SDS011;10382;49.140;9.234;2022-07-23T05:47:52;20.20;;;10.87;;
20445;SDS011;10382;49.140;9.234;2022-07-23T05:50:19;21.37;;;11.10;;
20445;SDS011;10382;49.140;9.234;2022-07-23T05:52:46;23.30;;;11.37;;
20445;SDS011;10382;49.140;9.234;2022-07-23T05:55:13;24.97;;;11.83;;
20445;SDS011;10382;49.140;9.234;2022-07-23T05:57:41;21.17;;;12.23;;
20445;SDS011;10382;49.140;9.234;2022-07-23T06:00:09;25.73;;;13.73;;
20445;SDS011;10382;49.140;9.234;2022-07-23T06:02:37;28.17;;;12.87;;
20445;SDS011;10382;49.140;9.234;2022-07-23T06:05:04;24.73;;;12.83;;
20445;SDS011;10382;49.140;9.234;2022-07-23T06:07:32;25.53;;;11.40;;
20445;SDS011;10382;49.140;9.234;2022-07-23T06:09:59;25.13;;;12.50;;
20445;SDS011;10382;49.140;9.234;2022-07-23T06:12:26;21.20;;;11.10;;
20445;SDS011;10382;49.140;9.234;2022-07-23T06:14:55;18.40;;;10.87;;
20445;SDS011;10382;49.140;9.234;2022-07-23T06:17:21;20.53;;;11.50;;
20445;SDS011;10382;49.140;9.234;2022-07-23T06:19:48;19.73;;;11.07;;
20445;SDS011;10382;49.140;9.234;2022-07-23T06:22:15;28.97;;;11.00;;
20445;SDS011;10382;49.140;9.234;2022-07-23T06:24:42;25.53;;;11.70;;
20445;SDS011;10382;49.140;9.234;2022-07-23T06:27:09;18.00;;;10.70;;
20445;SDS011;10382;49.140;9.234;2022-07-23T06:29:36;21.63;;;12.30;;
20445;SDS011;10382;49.140;9.234;2022-07-23T06:32:07;24.37;;;11.77;;
20445;SDS011;10382;49.140;9.234;2022-07-23T06:34:34;21.40;;;11.23;;
20445;SDS011;10382;49.140;9.234;2022-07-23T06:37:00;29.90;;;11.80;;
20445;SDS011;10382;49.140;9.234;2022-07-23T06:39:27;19.17;;;11.07;;
20445;SDS011;10382;49.140;9.234;2022-07-23T06:41:54;21.93;;;12.33;;
20445;SDS011;10382;49.140;9.234;2022-07-23T06:44:21;21.30;;;11.93;;
20445;SDS011;10382;49.140;9.234;2022-07-23T06:46:48;27.53;;;14.50;;
20445;SDS011;10382;49.140;9.234;2022-07-23T06:49:17;24.40;;;12.10;;
20445;SDS011;10382;49.140;9.234;2022-07-23T06:51:43;19.43;;;11.83;;
20445;SDS011;10382;49.140;9.234;2022-07-23T06:54:10;27.73;;;13.40;;
20445;SDS011;10382;49.140;9.234;2022-07-23T06:56:37;23.20;;;11.90;;
20445;SDS011;10382;49.140;9.234;2022-07-23T06:59:04;32.20;;;12.67;;
20445;SDS011;10382;49.140;9.234;2022-07-23T07:01:31;27.20;;;11.30;;
20445;SDS011;10382;49.140;9.234;2022-07-23T07:03:58;21.87;;;11.63;;
20445;SDS011;10382;49.140;9.234;2022-07-23T07:06:26;44.77;;;13.43;;
20445;SDS011;10382;49.140;9.234;2022-07-23T07:08:53;22.17;;;12.77;;
20445;SDS011;10382;49.140;9.234;2022-07-23T07:11:20;29.70;;;13.60;;
20445;SDS011;10382;49.140;9.234;2022-07-23T07:13:48;29.40;;;14.60;;
20445;SDS011;10382;49.140;9.234;2022-07-23T07:16:15;29.20;;;14.30;;
20445;SDS011;10382;49.140;9.234;2022-07-23T07:18:42;31.13;;;14.30;;
20445;SDS011;10382;49.140;9.234;2022-07-23T07:21:09;27.90;;;14.77;;
20445;SDS011;10382;49.140;9.234;2022-07-23T07:23:37;30.60;;;15.60;;
20445;SDS011;10382;49.140;9.234;2022-07-23T07:26:04;26.83;;;15.70;;
20445;SDS011;10382;49.140;9.234;2022-07-23T07:28:31;35.67;;;17.00;;
20445;SDS011;10382;49.140;9.234;2022-07-23T07:30:58;25.43;;;13.90;;
20445;SDS011;10382;49.140;9.234;2022-07-23T07:33:25;27.67;;;15.40;;
20445;SDS011;10382;49.140;9.234;2022-07-23T07:35:52;24.30;;;14.47;;
20445;SDS011;10382;49.140;9.234;2022-07-23T07:38:19;32.47;;;16.90;;
20445;SDS011;10382;49.140;9.234;2022-07-23T07:40:48;30.07;;;13.60;;
20445;SDS011;10382;49.140;9.234;2022-07-23T07:43:14;29.60;;;13.60;;
20445;SDS011;10382;49.140;9.234;2022-07-23T07:45:41;22.50;;;11.87;;
20445;SDS011;10382;49.140;9.234;2022-07-23T07:48:08;27.80;;;12.77;;
20445;SDS011;10382;49.140;9.234;2022-07-23T07:50:35;30.43;;;13.33;;
20445;SDS011;10382;49.140;9.234;2022-07-23T07:53:02;27.03;;;14.00;;
20445;SDS011;10382;49.140;9.234;2022-07-23T07:55:29;21.27;;;11.40;;
20445;SDS011;10382;49.140;9.234;2022-07-23T07:57:58;19.30;;;11.77;;
20445;SDS011;10382;49.140;9.234;2022-07-23T08:00:24;27.00;;;11.70;;
20445;SDS011;10382;49.140;9.234;2022-07-23T08:02:52;22.13;;;11.93;;
20445;SDS011;10382;49.140;9.234;2022-07-23T08:05:20;23.17;;;11.63;;
20445;SDS011;10382;49.140;9.234;2022-07-23T08:07:48;18.47;;;11.87;;
20445;SDS011;10382;49.140;9.234;2022-07-23T08:10:15;25.60;;;11.70;;
20445;SDS011;10382;49.140;9.234;2022-07-23T08:12:43;20.50;;;12.23;;
20445;SDS011;10382;49.140;9.234;2022-07-23T08:15:13;28.53;;;13.23;;
20445;SDS011;10382;49.140;9.234;2022-07-23T08:17:42;40.30;;;14.10;;
20445;SDS011;10382;49.140;9.234;2022-07-23T08:20:10;24.73;;;12.70;;
20445;SDS011;10382;49.140;9.234;2022-07-23T08:22:41;27.63;;;13.40;;
20445;SDS011;10382;49.140;9.234;2022-07-23T08:25:12;24.30;;;13.43;;
20445;SDS011;10382;49.140;9.234;2022-07-23T08:27:39;27.97;;;12.40;;
20445;SDS011;10382;49.140;9.234;2022-07-23T08:30:07;24.27;;;13.10;;
20445;SDS011;10382;49.140;9.234;2022-07-23T08:32:49;26.07;;;13.40;;
20445;SDS011;10382;49.140;9.234;2022-07-23T08:35:17;22.03;;;12.80;;
20445;SDS011;10382;49.140;9.234;2022-07-23T08:37:47;21.37;;;12.40;;
20445;SDS011;10382;49.140;9.234;2022-07-23T08:40:14;20.43;;;12.00;;
20445;SDS011;10382;49.140;9.234;2022-07-23T08:42:41;22.43;;;12.53;;
20445;SDS011;10382;49.140;9.234;2022-07-23T08:45:08;26.03;;;12.70;;
20445;SDS011;10382;49.140;9.234;2022-07-23T08:47:35;22.43;;;12.10;;
20445;SDS011;10382;49.140;9.234;2022-07-23T08:50:05;25.77;;;13.13;;
20445;SDS011;10382;49.140;9.234;2022-07-23T08:52:34;21.93;;;12.97;;
20445;SDS011;10382;49.140;9.234;2022-07-23T08:55:02;20.10;;;12.23;;
20445;SDS011;10382;49.140;9.234;2022-07-23T08:57:30;19.10;;;11.37;;
20445;SDS011;10382;49.140;9.234;2022-07-23T08:59:57;28.43;;;13.80;;
20445;SDS011;10382;49.140;9.234;2022-07-23T09:02:23;23.37;;;11.53;;
20445;SDS011;10382;49.140;9.234;2022-07-23T09:04:50;27.53;;;12.27;;
20445;SDS011;10382;49.140;9.234;2022-07-23T09:07:19;23.47;;;13.30;;
20445;SDS011;10382;49.140;9.234;2022-07-23T09:09:46;21.73;;;14.17;;
20445;SDS011;10382;49.140;9.234;2022-07-23T09:12:13;27.80;;;14.27;;
20445;SDS011;10382;49.140;9.234;2022-07-23T09:14:40;28.80;;;12.50;;
20445;SDS011;10382;49.140;9.234;2022-07-23T09:17:09;24.00;;;12.47;;
20445;SDS011;10382;49.140;9.234;2022-07-23T09:19:37;30.83;;;14.20;;
20445;SDS011;10382;49.140;9.234;2022-07-23T09:22:17;25.23;;;13.53;;
20445;SDS011;10382;49.140;9.234;2022-07-23T09:25:02;23.90;;;13.33;;
20445;SDS011;10382;49.140;9.234;2022-07-23T09:27:48;30.17;;;16.93;;
20445;SDS011;10382;49.140;9.234;2022-07-23T09:30:18;29.73;;;16.13;;
20445;SDS011;10382;49.140;9.234;2022-07-23T09:35:45;30.60;;;14.77;;
20445;SDS011;10382;49.140;9.234;2022-07-23T09:38:14;29.00;;;16.20;;
20445;SDS011;10382;49.140;9.234;2022-07-23T09:40:42;23.77;;;12.93;;
20445;SDS011;10382;49.140;9.234;2022-07-23T09:43:09;24.13;;;12.93;;
20445;SDS011;10382;49.140;9.234;2022-07-23T09:45:36;29.80;;;16.20;;
20445;SDS011;10382;49.140;9.234;2022-07-23T09:48:11;21.40;;;11.27;;
20445;SDS011;10382;49.140;9.234;2022-07-23T09:50:39;19.83;;;11.27;;
20445;SDS011;10382;49.140;9.234;2022-07-23T09:53:07;21.63;;;10.40;;
20445;SDS011;10382;49.140;9.234;2022-07-23T09:55:36;21.63;;;10.57;;
20445;SDS011;10382;49.140;9.234;2022-07-23T09:58:03;30.60;;;11.40;;
20445;SDS011;10382;49.140;9.234;2022-07-23T10:00:33;21.83;;;10.53;;
20445;SDS011;10382;49.140;9.234;2022-07-23T10:03:01;17.87;;;9.90;;
20445;SDS011;10382;49.140;9.234;2022-07-23T10:05:29;25.93;;;12.53;;
20445;SDS011;10382;49.140;9.234;2022-07-23T10:07:57;22.57;;;10.97;;
20445;SDS011;10382;49.140;9.234;2022-07-23T10:10:25;28.57;;;12.33;;
20445;SDS011;10382;49.140;9.234;2022-07-23T10:12:55;21.43;;;9.53;;
20445;SDS011;10382;49.140;9.234;2022-07-23T10:15:36;26.77;;;9.80;;
20445;SDS011;10382;49.140;9.234;2022-07-23T10:18:05;18.13;;;8.70;;
20445;SDS011;10382;49.140;9.234;2022-07-23T10:20:33;15.10;;;7.90;;
20445;SDS011;10382;49.140;9.234;2022-07-23T10:23:01;19.03;;;9.47;;
20445;SDS011;10382;49.140;9.234;2022-07-23T10:25:36;22.00;;;11.13;;
20445;SDS011;10382;49.140;9.234;2022-07-23T10:28:12;20.80;;;10.60;;
20445;SDS011;10382;49.140;9.234;2022-07-23T10:30:53;16.87;;;9.27;;
20445;SDS011;10382;49.140;9.234;2022-07-23T10:33:30;20.10;;;9.73;;
20445;SDS011;10382;49.140;9.234;2022-07-23T10:36:09;18.70;;;10.13;;
20445;SDS011;10382;49.140;9.234;2022-07-23T10:38:48;23.63;;;10.50;;
20445;SDS011;10382;49.140;9.234;2022-07-23T10:41:30;18.50;;;8.93;;
20445;SDS011;10382;49.140;9.234;2022-07-23T10:44:09;21.63;;;10.60;;
20445;SDS011;10382;49.140;9.234;2022-07-23T10:49:25;15.90;;;9.10;;
20445;SDS011;10382;49.140;9.234;2022-07-23T10:54:43;23.97;;;11.13;;
20445;SDS011;10382;49.140;9.234;2022-07-23T10:57:12;20.43;;;9.80;;
20445;SDS011;10382;49.140;9.234;2022-07-23T11:02:46;19.50;;;9.33;;
20445;SDS011;10382;49.140;9.234;2022-07-23T11:05:15;17.37;;;8.87;;
20445;SDS011;10382;49.140;9.234;2022-07-23T11:10:48;16.83;;;8.63;;
20445;SDS011;10382;49.140;9.234;2022-07-23T11:16:10;24.50;;;10.37;;
20445;SDS011;10382;49.140;9.234;2022-07-23T11:19:09;14.93;;;9.53;;
20445;SDS011;10382;49.140;9.234;2022-07-23T11:21:42;20.03;;;10.07;;
20445;SDS011;10382;49.140;9.234;2022-07-23T11:24:11;15.90;;;8.90;;
20445;SDS011;10382;49.140;9.234;2022-07-23T11:26:44;17.57;;;9.97;;
20445;SDS011;10382;49.140;9.234;2022-07-23T11:32:18;17.37;;;8.40;;
20445;SDS011;10382;49.140;9.234;2022-07-23T11:34:59;16.23;;;8.90;;
20445;SDS011;10382;49.140;9.234;2022-07-23T11:37:27;16.27;;;9.50;;
20445;SDS011;10382;49.140;9.234;2022-07-23T11:40:00;21.53;;;10.23;;
20445;SDS011;10382;49.140;9.234;2022-07-23T11:42:30;19.50;;;9.30;;
20445;SDS011;10382;49.140;9.234;2022-07-23T11:44:58;26.00;;;9.90;;
20445;SDS011;10382;49.140;9.234;2022-07-23T11:47:26;23.37;;;12.07;;
20445;SDS011;10382;49.140;9.234;2022-07-23T11:49:54;16.37;;;9.47;;
20445;SDS011;10382;49.140;9.234;2022-07-23T11:52:23;18.43;;;10.10;;
20445;SDS011;10382;49.140;9.234;2022-07-23T11:54:51;25.37;;;12.07;;
20445;SDS011;10382;49.140;9.234;2022-07-23T11:57:20;33.47;;;10.03;;
20445;SDS011;10382;49.140;9.234;2022-07-23T11:59:51;19.67;;;7.60;;
20445;SDS011;10382;49.140;9.234;2022-07-23T12:02:20;21.07;;;9.10;;
20445;SDS011;10382;49.140;9.234;2022-07-23T12:04:50;25.50;;;13.07;;
20445;SDS011;10382;49.140;9.234;2022-07-23T12:07:26;20.30;;;8.57;;
20445;SDS011;10382;49.140;9.234;2022-07-23T12:09:58;19.00;;;8.33;;
20445;SDS011;10382;49.140;9.234;2022-07-23T12:12:26;20.63;;;9.17;;
20445;SDS011;10382;49.140;9.234;2022-07-23T12:14:54;17.77;;;8.50;;
20445;SDS011;10382;49.140;9.234;2022-07-23T12:17:26;13.67;;;7.50;;
20445;SDS011;10382;49.140;9.234;2022-07-23T12:19:55;23.40;;;9.87;;
20445;SDS011;10382;49.140;9.234;2022-07-23T12:22:23;17.57;;;8.13;;
20445;SDS011;10382;49.140;9.234;2022-07-23T12:24:55;24.23;;;8.27;;
20445;SDS011;10382;49.140;9.234;2022-07-23T12:27:24;20.90;;;7.90;;
20445;SDS011;10382;49.140;9.234;2022-07-23T12:29:52;17.47;;;7.60;;
20445;SDS011;10382;49.140;9.234;2022-07-23T12:32:20;18.50;;;9.43;;
20445;SDS011;10382;49.140;9.234;2022-07-23T12:34:49;12.43;;;7.03;;
20445;SDS011;10382;49.140;9.234;2022-07-23T12:37:26;15.50;;;8.10;;
20445;SDS011;10382;49.140;9.234;2022-07-23T12:39:56;19.13;;;8.47;;
20445;SDS011;10382;49.140;9.234;2022-07-23T12:42:23;20.13;;;7.97;;
20445;SDS011;10382;49.140;9.234;2022-07-23T12:45:03;24.80;;;9.23;;
20445;SDS011;10382;49.140;9.234;2022-07-23T12:47:50;16.33;;;8.30;;
20445;SDS011;10382;49.140;9.234;2022-07-23T12:50:34;14.93;;;7.10;;
20445;SDS011;10382;49.140;9.234;2022-07-23T12:53:07;20.60;;;9.77;;
20445;SDS011;10382;49.140;9.234;2022-07-23T12:55:38;21.20;;;8.67;;
20445;SDS011;10382;49.140;9.234;2022-07-23T12:58:09;17.20;;;7.87;;
20445;SDS011;10382;49.140;9.234;2022-07-23T13:03:36;18.13;;;8.20;;
20445;SDS011;10382;49.140;9.234;2022-07-23T13:06:06;20.30;;;9.03;;
20445;SDS011;10382;49.140;9.234;2022-07-23T13:08:35;16.63;;;8.23;;
20445;SDS011;10382;49.140;9.234;2022-07-23T13:11:05;15.73;;;7.60;;
20445;SDS011;10382;49.140;9.234;2022-07-23T13:13:33;19.67;;;8.30;;
20445;SDS011;10382;49.140;9.234;2022-07-23T13:16:01;23.33;;;9.83;;
20445;SDS011;10382;49.140;9.234;2022-07-23T13:18:29;16.37;;;8.13;;
20445;SDS011;10382;49.140;9.234;2022-07-23T13:20:56;19.43;;;9.30;;
20445;SDS011;10382;49.140;9.234;2022-07-23T13:23:23;22.57;;;9.20;;
20445;SDS011;10382;49.140;9.234;2022-07-23T13:25:50;23.33;;;10.63;;
20445;SDS011;10382;49.140;9.234;2022-07-23T13:28:19;15.90;;;8.10;;
20445;SDS011;10382;49.140;9.234;2022-07-23T13:30:48;19.60;;;9.07;;
20445;SDS011;10382;49.140;9.234;2022-07-23T13:33:16;17.87;;;8.93;;
20445;SDS011;10382;49.140;9.234;2022-07-23T13:35:44;14.63;;;7.90;;
20445;SDS011;10382;49.140;9.234;2022-07-23T13:38:11;18.90;;;8.87;;
20445;SDS011;10382;49.140;9.234;2022-07-23T13:40:39;18.07;;;7.80;;
20445;SDS011;10382;49.140;9.234;2022-07-23T13:43:08;19.47;;;9.00;;
20445;SDS011;10382;49.140;9.234;2022-07-23T13:45:37;15.00;;;8.40;;
20445;SDS011;10382;49.140;9.234;2022-07-23T13:48:05;24.47;;;11.00;;
20445;SDS011;10382;49.140;9.234;2022-07-23T13:50:32;21.57;;;8.80;;
20445;SDS011;10382;49.140;9.234;2022-07-23T13:53:00;12.80;;;6.87;;
20445;SDS011;10382;49.140;9.234;2022-07-23T13:55:28;25.40;;;10.77;;
20445;SDS011;10382;49.140;9.234;2022-07-23T13:57:56;19.27;;;9.73;;
20445;SDS011;10382;49.140;9.234;2022-07-23T14:00:23;15.53;;;7.77;;
20445;SDS011;10382;49.140;9.234;2022-07-23T14:02:52;20.40;;;8.70;;
20445;SDS011;10382;49.140;9.234;2022-07-23T14:05:19;17.87;;;8.50;;
20445;SDS011;10382;49.140;9.234;2022-07-23T14:07:46;23.87;;;7.53;;
20445;SDS011;10382;49.140;9.234;2022-07-23T14:10:15;29.63;;;9.53;;
20445;SDS011;10382;49.140;9.234;2022-07-23T14:12:43;18.87;;;8.73;;
20445;SDS011;10382;49.140;9.234;2022-07-23T14:15:10;17.10;;;8.43;;
20445;SDS011;10382;49.140;9.234;2022-07-23T14:17:37;21.40;;;8.70;;
20445;SDS011;10382;49.140;9.234;2022-07-23T14:20:07;18.70;;;9.17;;
20445;SDS011;10382;49.140;9.234;2022-07-23T14:22:34;13.93;;;7.90;;
20445;SDS011;10382;49.140;9.234;2022-07-23T14:25:02;22.10;;;9.93;;
20445;SDS011;10382;49.140;9.234;2022-07-23T14:27:30;21.10;;;9.00;;
20445;SDS011;10382;49.140;9.234;2022-07-23T14:29:57;19.93;;;9.30;;
20445;SDS011;10382;49.140;9.234;2022-07-23T14:32:24;17.40;;;9.13;;
20445;SDS011;10382;49.140;9.234;2022-07-23T14:34:51;17.37;;;7.83;;
20445;SDS011;10382;49.140;9.234;2022-07-23T14:37:20;17.07;;;8.90;;
20445;SDS011;10382;49.140;9.234;2022-07-23T14:39:47;34.20;;;8.87;;
20445;SDS011;10382;49.140;9.234;2022-07-23T14:42:14;19.13;;;9.37;;
20445;SDS011;10382;49.140;9.234;2022-07-23T14:44:41;24.80;;;8.90;;
20445;SDS011;10382;49.140;9.234;2022-07-23T14:47:09;21.70;;;9.83;;
20445;SDS011;10382;49.140;9.234;2022-07-23T14:49:36;19.83;;;8.93;;
20445;SDS011;10382;49.140;9.234;2022-07-23T14:52:03;25.97;;;12.27;;
20445;SDS011;10382;49.140;9.234;2022-07-23T14:54:33;19.10;;;8.83;;
20445;SDS011;10382;49.140;9.234;2022-07-23T14:57:01;18.83;;;8.80;;
20445;SDS011;10382;49.140;9.234;2022-07-23T14:59:29;12.53;;;8.43;;